sensor_id;sensor_type;location;lat;lon;timestamp;P1;durP1;ratioP1;P2;durP2;ratioP2
14137;SDS011;8199;51.310;9.466;2023-08-07T00:00:57;2.42;;;1.02;;
14137;SDS011;8199;51.310;9.466;2023-08-07T00:03:22;0.85;;;0.50;;
14137;SDS011;8199;51.310;9.466;2023-08-07T00:05:48;0.57;;;0.40;;
14137;SDS011;8199;51.310;9.466;2023-08-07T00:08:14;0.60;;;0.50;;
14137;SDS011;8199;51.310;9.466;2023-08-07T00:10:39;1.33;;;0.52;;
14137;SDS011;8199;51.310;9.466;2023-08-07T00:13:05;0.77;;;0.50;;
14137;SDS011;8199;51.310;9.466;2023-08-07T00:15:31;0.93;;;0.50;;
14137;SDS011;8199;51.310;9.466;2023-08-07T00:17:58;1.08;;;0.55;;
14137;SDS011;8199;51.310;9.466;2023-08-07T00:20:24;1.63;;;0.52;;
14137;SDS011;8199;51.310;9.466;2023-08-07T00:22:49;0.70;;;0.30;;
14137;SDS011;8199;51.310;9.466;2023-08-07T00:25:15;0.30;;;0.22;;
14137;SDS011;8199;51.310;9.466;2023-08-07T00:27:40;0.70;;;0.50;;
14137;SDS011;8199;51.310;9.466;2023-08-07T00:30:06;2.85;;;0.70;;
14137;SDS011;8199;51.310;9.466;2023-08-07T00:32:32;1.67;;;0.77;;
14137;SDS011;8199;51.310;9.466;2023-08-07T00:34:58;0.65;;;0.50;;
14137;SDS011;8199;51.310;9.466;2023-08-07T00:37:23;0.82;;;0.50;;
14137;SDS011;8199;51.310;9.466;2023-08-07T00:39:49;1.00;;;0.40;;
14137;SDS011;8199;51.310;9.466;2023-08-07T00:42:14;1.40;;;0.50;;
14137;SDS011;8199;51.310;9.466;2023-08-07T00:44:40;0.90;;;0.50;;
14137;SDS011;8199;51.310;9.466;2023-08-07T00:47:06;0.68;;;0.50;;
14137;SDS011;8199;51.310;9.466;2023-08-07T00:49:31;1.00;;;0.50;;
14137;SDS011;8199;51.310;9.466;2023-08-07T00:51:58;0.77;;;0.45;;
14137;SDS011;8199;51.310;9.466;2023-08-07T00:54:23;1.95;;;0.70;;
14137;SDS011;8199;51.310;9.466;2023-08-07T00:56:50;1.20;;;0.60;;
14137;SDS011;8199;51.310;9.466;2023-08-07T00:59:16;0.82;;;0.60;;
14137;SDS011;8199;51.310;9.466;2023-08-07T01:01:43;1.50;;;0.45;;
14137;SDS011;8199;51.310;9.466;2023-08-07T01:04:10;0.47;;;0.38;;
14137;SDS011;8199;51.310;9.466;2023-08-07T01:06:35;0.45;;;0.40;;
14137;SDS011;8199;51.310;9.466;2023-08-07T01:09:01;0.73;;;0.40;;
14137;SDS011;8199;51.310;9.466;2023-08-07T01:14:13;0.30;;;0.30;;
14137;SDS011;8199;51.310;9.466;2023-08-07T01:17:09;1.75;;;0.60;;
14137;SDS011;8199;51.310;9.466;2023-08-07T01:19:39;0.60;;;0.43;;
14137;SDS011;8199;51.310;9.466;2023-08-07T01:22:12;0.50;;;0.40;;
14137;SDS011;8199;51.310;9.466;2023-08-07T01:24:43;0.55;;;0.40;;
14137;SDS011;8199;51.310;9.466;2023-08-07T01:27:14;0.40;;;0.40;;
14137;SDS011;8199;51.310;9.466;2023-08-07T01:32:33;1.05;;;0.40;;
14137;SDS011;8199;51.310;9.466;2023-08-07T01:35:02;0.38;;;0.32;;
14137;SDS011;8199;51.310;9.466;2023-08-07T01:37:30;1.10;;;0.35;;
14137;SDS011;8199;51.310;9.466;2023-08-07T01:39:59;0.70;;;0.30;;
14137;SDS011;8199;51.310;9.466;2023-08-07T01:42:28;0.63;;;0.50;;
14137;SDS011;8199;51.310;9.466;2023-08-07T01:44:54;0.85;;;0.57;;
14137;SDS011;8199;51.310;9.466;2023-08-07T01:47:20;0.63;;;0.28;;
14137;SDS011;8199;51.310;9.466;2023-08-07T01:49:45;1.05;;;0.40;;
14137;SDS011;8199;51.310;9.466;2023-08-07T01:52:11;0.63;;;0.40;;
14137;SDS011;8199;51.310;9.466;2023-08-07T01:54:37;0.63;;;0.43;;
14137;SDS011;8199;51.310;9.466;2023-08-07T01:57:03;0.28;;;0.25;;
14137;SDS011;8199;51.310;9.466;2023-08-07T01:59:28;0.40;;;0.40;;
14137;SDS011;8199;51.310;9.466;2023-08-07T02:01:54;0.43;;;0.30;;
14137;SDS011;8199;51.310;9.466;2023-08-07T02:04:19;0.70;;;0.30;;
14137;SDS011;8199;51.310;9.466;2023-08-07T02:06:45;0.30;;;0.30;;
14137;SDS011;8199;51.310;9.466;2023-08-07T02:09:10;0.73;;;0.30;;
14137;SDS011;8199;51.310;9.466;2023-08-07T02:11:36;0.30;;;0.30;;
14137;SDS011;8199;51.310;9.466;2023-08-07T02:14:01;0.35;;;0.30;;
14137;SDS011;8199;51.310;9.466;2023-08-07T02:16:27;0.43;;;0.30;;
14137;SDS011;8199;51.310;9.466;2023-08-07T02:18:53;0.30;;;0.30;;
14137;SDS011;8199;51.310;9.466;2023-08-07T02:21:19;0.20;;;0.20;;
14137;SDS011;8199;51.310;9.466;2023-08-07T02:23:44;0.30;;;0.20;;
14137;SDS011;8199;51.310;9.466;2023-08-07T02:26:10;0.30;;;0.30;;
14137;SDS011;8199;51.310;9.466;2023-08-07T02:28:35;0.40;;;0.40;;
14137;SDS011;8199;51.310;9.466;2023-08-07T02:31:01;0.50;;;0.20;;
14137;SDS011;8199;51.310;9.466;2023-08-07T02:33:26;0.30;;;0.30;;
14137;SDS011;8199;51.310;9.466;2023-08-07T02:35:55;0.55;;;0.30;;
14137;SDS011;8199;51.310;9.466;2023-08-07T02:38:20;0.45;;;0.15;;
14137;SDS011;8199;51.310;9.466;2023-08-07T02:40:46;0.77;;;0.20;;
14137;SDS011;8199;51.310;9.466;2023-08-07T02:43:12;1.20;;;0.30;;
14137;SDS011;8199;51.310;9.466;2023-08-07T02:45:37;0.28;;;0.20;;
14137;SDS011;8199;51.310;9.466;2023-08-07T02:48:03;0.38;;;0.35;;
14137;SDS011;8199;51.310;9.466;2023-08-07T02:50:29;0.50;;;0.20;;
14137;SDS011;8199;51.310;9.466;2023-08-07T02:52:57;0.60;;;0.28;;
14137;SDS011;8199;51.310;9.466;2023-08-07T02:55:23;0.82;;;0.30;;
14137;SDS011;8199;51.310;9.466;2023-08-07T02:57:49;0.30;;;0.30;;
14137;SDS011;8199;51.310;9.466;2023-08-07T03:00:14;0.32;;;0.30;;
14137;SDS011;8199;51.310;9.466;2023-08-07T03:02:40;0.30;;;0.30;;
14137;SDS011;8199;51.310;9.466;2023-08-07T03:05:05;0.75;;;0.40;;
14137;SDS011;8199;51.310;9.466;2023-08-07T03:07:32;1.67;;;0.43;;
14137;SDS011;8199;51.310;9.466;2023-08-07T03:09:57;1.75;;;0.30;;
14137;SDS011;8199;51.310;9.466;2023-08-07T03:12:23;1.00;;;0.30;;
14137;SDS011;8199;51.310;9.466;2023-08-07T03:14:48;0.40;;;0.40;;
14137;SDS011;8199;51.310;9.466;2023-08-07T03:17:14;2.20;;;0.40;;
14137;SDS011;8199;51.310;9.466;2023-08-07T03:19:41;0.55;;;0.40;;
14137;SDS011;8199;51.310;9.466;2023-08-07T03:22:08;0.38;;;0.30;;
14137;SDS011;8199;51.310;9.466;2023-08-07T03:24:33;1.20;;;0.40;;
14137;SDS011;8199;51.310;9.466;2023-08-07T03:26:59;0.47;;;0.40;;
14137;SDS011;8199;51.310;9.466;2023-08-07T03:29:25;0.73;;;0.40;;
14137;SDS011;8199;51.310;9.466;2023-08-07T03:31:50;0.40;;;0.40;;
14137;SDS011;8199;51.310;9.466;2023-08-07T03:34:16;0.30;;;0.30;;
14137;SDS011;8199;51.310;9.466;2023-08-07T03:36:41;0.82;;;0.22;;
14137;SDS011;8199;51.310;9.466;2023-08-07T03:39:07;0.73;;;0.40;;
14137;SDS011;8199;51.310;9.466;2023-08-07T03:41:32;0.75;;;0.60;;
14137;SDS011;8199;51.310;9.466;2023-08-07T03:43:58;0.70;;;0.60;;
14137;SDS011;8199;51.310;9.466;2023-08-07T03:46:24;0.50;;;0.47;;
14137;SDS011;8199;51.310;9.466;2023-08-07T03:48:49;0.57;;;0.50;;
14137;SDS011;8199;51.310;9.466;2023-08-07T03:51:15;0.65;;;0.32;;
14137;SDS011;8199;51.310;9.466;2023-08-07T03:53:41;1.50;;;0.63;;
14137;SDS011;8199;51.310;9.466;2023-08-07T03:56:07;1.20;;;0.50;;
14137;SDS011;8199;51.310;9.466;2023-08-07T03:58:33;0.50;;;0.50;;
14137;SDS011;8199;51.310;9.466;2023-08-07T04:00:58;0.47;;;0.45;;
14137;SDS011;8199;51.310;9.466;2023-08-07T04:03:24;1.25;;;0.50;;
14137;SDS011;8199;51.310;9.466;2023-08-07T04:05:53;0.60;;;0.50;;
14137;SDS011;8199;51.310;9.466;2023-08-07T04:08:20;0.75;;;0.38;;
14137;SDS011;8199;51.310;9.466;2023-08-07T04:10:56;1.00;;;0.60;;
14137;SDS011;8199;51.310;9.466;2023-08-07T04:13:32;0.70;;;0.50;;
14137;SDS011;8199;51.310;9.466;2023-08-07T04:15:58;0.70;;;0.38;;
14137;SDS011;8199;51.310;9.466;2023-08-07T04:18:25;0.50;;;0.38;;
14137;SDS011;8199;51.310;9.466;2023-08-07T04:20:52;0.50;;;0.40;;
14137;SDS011;8199;51.310;9.466;2023-08-07T04:23:18;1.23;;;0.50;;
14137;SDS011;8199;51.310;9.466;2023-08-07T04:25:44;0.90;;;0.60;;
14137;SDS011;8199;51.310;9.466;2023-08-07T04:28:11;0.85;;;0.50;;
14137;SDS011;8199;51.310;9.466;2023-08-07T04:30:37;1.35;;;0.50;;
14137;SDS011;8199;51.310;9.466;2023-08-07T04:33:02;1.20;;;0.52;;
14137;SDS011;8199;51.310;9.466;2023-08-07T04:35:28;0.55;;;0.50;;
14137;SDS011;8199;51.310;9.466;2023-08-07T04:37:54;0.47;;;0.47;;
14137;SDS011;8199;51.310;9.466;2023-08-07T04:40:19;0.98;;;0.55;;
14137;SDS011;8199;51.310;9.466;2023-08-07T04:42:45;2.30;;;0.50;;
14137;SDS011;8199;51.310;9.466;2023-08-07T04:45:10;4.65;;;0.80;;
14137;SDS011;8199;51.310;9.466;2023-08-07T04:47:36;2.15;;;0.70;;
14137;SDS011;8199;51.310;9.466;2023-08-07T04:50:01;5.93;;;0.80;;
14137;SDS011;8199;51.310;9.466;2023-08-07T04:52:27;3.88;;;1.00;;
14137;SDS011;8199;51.310;9.466;2023-08-07T04:54:53;7.20;;;2.25;;
14137;SDS011;8199;51.310;9.466;2023-08-07T04:57:18;5.68;;;0.82;;
14137;SDS011;8199;51.310;9.466;2023-08-07T04:59:44;4.88;;;0.90;;
14137;SDS011;8199;51.310;9.466;2023-08-07T05:02:10;9.63;;;1.30;;
14137;SDS011;8199;51.310;9.466;2023-08-07T05:04:35;6.70;;;1.30;;
14137;SDS011;8199;51.310;9.466;2023-08-07T05:07:01;5.70;;;1.17;;
14137;SDS011;8199;51.310;9.466;2023-08-07T05:09:26;7.28;;;1.00;;
14137;SDS011;8199;51.310;9.466;2023-08-07T05:11:52;4.55;;;0.95;;
14137;SDS011;8199;51.310;9.466;2023-08-07T05:14:17;4.57;;;0.95;;
14137;SDS011;8199;51.310;9.466;2023-08-07T05:16:43;4.25;;;0.88;;
14137;SDS011;8199;51.310;9.466;2023-08-07T05:19:08;3.42;;;1.00;;
14137;SDS011;8199;51.310;9.466;2023-08-07T05:21:34;3.67;;;0.90;;
14137;SDS011;8199;51.310;9.466;2023-08-07T05:23:59;3.45;;;0.65;;
14137;SDS011;8199;51.310;9.466;2023-08-07T05:26:25;4.25;;;0.95;;
14137;SDS011;8199;51.310;9.466;2023-08-07T05:28:50;2.25;;;0.75;;
14137;SDS011;8199;51.310;9.466;2023-08-07T05:31:16;2.83;;;1.05;;
14137;SDS011;8199;51.310;9.466;2023-08-07T05:33:41;2.55;;;0.82;;
14137;SDS011;8199;51.310;9.466;2023-08-07T05:36:07;2.95;;;0.90;;
14137;SDS011;8199;51.310;9.466;2023-08-07T05:38:32;2.90;;;0.80;;
14137;SDS011;8199;51.310;9.466;2023-08-07T05:40:58;1.75;;;0.70;;
14137;SDS011;8199;51.310;9.466;2023-08-07T05:43:23;1.50;;;0.50;;
14137;SDS011;8199;51.310;9.466;2023-08-07T05:45:49;2.25;;;0.80;;
14137;SDS011;8199;51.310;9.466;2023-08-07T05:48:15;1.65;;;0.90;;
14137;SDS011;8199;51.310;9.466;2023-08-07T05:50:41;2.03;;;0.80;;
14137;SDS011;8199;51.310;9.466;2023-08-07T05:53:07;3.53;;;1.20;;
14137;SDS011;8199;51.310;9.466;2023-08-07T05:55:33;2.63;;;0.70;;
14137;SDS011;8199;51.310;9.466;2023-08-07T05:57:59;1.33;;;0.70;;
14137;SDS011;8199;51.310;9.466;2023-08-07T06:00:24;6.85;;;0.90;;
14137;SDS011;8199;51.310;9.466;2023-08-07T06:02:50;4.10;;;1.08;;
14137;SDS011;8199;51.310;9.466;2023-08-07T06:05:16;5.90;;;2.20;;
14137;SDS011;8199;51.310;9.466;2023-08-07T06:07:42;3.10;;;1.17;;
14137;SDS011;8199;51.310;9.466;2023-08-07T06:10:08;4.45;;;1.30;;
14137;SDS011;8199;51.310;9.466;2023-08-07T06:12:33;3.10;;;1.02;;
14137;SDS011;8199;51.310;9.466;2023-08-07T06:14:59;3.60;;;1.20;;
14137;SDS011;8199;51.310;9.466;2023-08-07T06:17:25;3.50;;;1.20;;
14137;SDS011;8199;51.310;9.466;2023-08-07T06:19:50;2.63;;;1.20;;
14137;SDS011;8199;51.310;9.466;2023-08-07T06:22:16;3.63;;;1.63;;
14137;SDS011;8199;51.310;9.466;2023-08-07T06:24:42;2.63;;;1.17;;
14137;SDS011;8199;51.310;9.466;2023-08-07T06:27:08;4.18;;;1.40;;
14137;SDS011;8199;51.310;9.466;2023-08-07T06:29:33;3.92;;;1.52;;
14137;SDS011;8199;51.310;9.466;2023-08-07T06:31:59;3.40;;;1.10;;
14137;SDS011;8199;51.310;9.466;2023-08-07T06:34:24;4.00;;;1.20;;
14137;SDS011;8199;51.310;9.466;2023-08-07T06:36:50;2.15;;;1.05;;
14137;SDS011;8199;51.310;9.466;2023-08-07T06:39:15;4.93;;;1.40;;
14137;SDS011;8199;51.310;9.466;2023-08-07T06:41:41;9.88;;;1.42;;
14137;SDS011;8199;51.310;9.466;2023-08-07T06:44:06;3.72;;;1.00;;
14137;SDS011;8199;51.310;9.466;2023-08-07T06:46:32;71.65;;;58.10;;
14137;SDS011;8199;51.310;9.466;2023-08-07T06:48:57;26.65;;;18.55;;
14137;SDS011;8199;51.310;9.466;2023-08-07T06:51:23;75.18;;;54.25;;
14137;SDS011;8199;51.310;9.466;2023-08-07T06:53:49;181.65;;;131.60;;
14137;SDS011;8199;51.310;9.466;2023-08-07T06:56:14;315.38;;;224.32;;
14137;SDS011;8199;51.310;9.466;2023-08-07T06:58:40;379.00;;;261.13;;
14137;SDS011;8199;51.310;9.466;2023-08-07T07:01:05;295.13;;;193.48;;
14137;SDS011;8199;51.310;9.466;2023-08-07T07:03:31;283.63;;;182.07;;
14137;SDS011;8199;51.310;9.466;2023-08-07T07:05:56;293.13;;;181.32;;
14137;SDS011;8199;51.310;9.466;2023-08-07T07:08:22;281.98;;;171.15;;
14137;SDS011;8199;51.310;9.466;2023-08-07T07:10:48;202.65;;;118.10;;
14137;SDS011;8199;51.310;9.466;2023-08-07T07:13:14;189.82;;;111.75;;
14137;SDS011;8199;51.310;9.466;2023-08-07T07:15:39;97.45;;;54.13;;
14137;SDS011;8199;51.310;9.466;2023-08-07T07:18:05;119.18;;;66.95;;
14137;SDS011;8199;51.310;9.466;2023-08-07T07:20:31;61.40;;;34.85;;
14137;SDS011;8199;51.310;9.466;2023-08-07T07:22:56;42.53;;;23.98;;
14137;SDS011;8199;51.310;9.466;2023-08-07T07:25:22;20.23;;;10.30;;
14137;SDS011;8199;51.310;9.466;2023-08-07T07:27:47;8.50;;;4.07;;
14137;SDS011;8199;51.310;9.466;2023-08-07T07:30:13;4.97;;;2.25;;
14137;SDS011;8199;51.310;9.466;2023-08-07T07:32:39;12.30;;;2.92;;
14137;SDS011;8199;51.310;9.466;2023-08-07T07:35:04;8.25;;;2.83;;
14137;SDS011;8199;51.310;9.466;2023-08-07T07:37:30;13.48;;;3.47;;
14137;SDS011;8199;51.310;9.466;2023-08-07T07:39:56;11.88;;;3.45;;
14137;SDS011;8199;51.310;9.466;2023-08-07T07:42:22;9.68;;;3.90;;
14137;SDS011;8199;51.310;9.466;2023-08-07T07:44:48;8.68;;;3.55;;
14137;SDS011;8199;51.310;9.466;2023-08-07T07:47:13;8.68;;;3.25;;
14137;SDS011;8199;51.310;9.466;2023-08-07T07:49:39;8.88;;;3.70;;
14137;SDS011;8199;51.310;9.466;2023-08-07T07:52:09;8.70;;;3.83;;
14137;SDS011;8199;51.310;9.466;2023-08-07T07:54:35;8.10;;;3.20;;
14137;SDS011;8199;51.310;9.466;2023-08-07T07:57:00;7.07;;;3.38;;
14137;SDS011;8199;51.310;9.466;2023-08-07T07:59:26;8.27;;;3.28;;
14137;SDS011;8199;51.310;9.466;2023-08-07T08:01:51;5.38;;;2.90;;
14137;SDS011;8199;51.310;9.466;2023-08-07T08:04:17;5.80;;;3.28;;
14137;SDS011;8199;51.310;9.466;2023-08-07T08:06:44;8.45;;;3.10;;
14137;SDS011;8199;51.310;9.466;2023-08-07T08:09:09;8.93;;;3.60;;
14137;SDS011;8199;51.310;9.466;2023-08-07T08:11:35;7.00;;;3.67;;
14137;SDS011;8199;51.310;9.466;2023-08-07T08:14:00;6.90;;;3.40;;
14137;SDS011;8199;51.310;9.466;2023-08-07T08:16:26;6.45;;;3.05;;
14137;SDS011;8199;51.310;9.466;2023-08-07T08:18:52;6.05;;;2.85;;
14137;SDS011;8199;51.310;9.466;2023-08-07T08:21:17;6.63;;;3.28;;
14137;SDS011;8199;51.310;9.466;2023-08-07T08:23:43;4.90;;;2.35;;
14137;SDS011;8199;51.310;9.466;2023-08-07T08:26:08;6.03;;;2.70;;
14137;SDS011;8199;51.310;9.466;2023-08-07T08:28:34;4.57;;;2.63;;
14137;SDS011;8199;51.310;9.466;2023-08-07T08:30:59;5.43;;;3.05;;
14137;SDS011;8199;51.310;9.466;2023-08-07T08:33:25;6.78;;;3.15;;
14137;SDS011;8199;51.310;9.466;2023-08-07T08:35:50;6.35;;;3.13;;
14137;SDS011;8199;51.310;9.466;2023-08-07T08:38:16;5.70;;;2.67;;
14137;SDS011;8199;51.310;9.466;2023-08-07T08:40:42;4.35;;;2.67;;
14137;SDS011;8199;51.310;9.466;2023-08-07T08:43:10;5.68;;;3.03;;
14137;SDS011;8199;51.310;9.466;2023-08-07T08:45:38;4.28;;;2.60;;
14137;SDS011;8199;51.310;9.466;2023-08-07T08:48:05;4.75;;;2.70;;
14137;SDS011;8199;51.310;9.466;2023-08-07T08:50:34;5.22;;;2.67;;
14137;SDS011;8199;51.310;9.466;2023-08-07T08:53:00;6.13;;;2.78;;
14137;SDS011;8199;51.310;9.466;2023-08-07T08:55:28;4.68;;;2.50;;
14137;SDS011;8199;51.310;9.466;2023-08-07T08:57:54;4.68;;;2.70;;
14137;SDS011;8199;51.310;9.466;2023-08-07T09:00:20;4.10;;;2.90;;
14137;SDS011;8199;51.310;9.466;2023-08-07T09:02:48;4.00;;;2.80;;
14137;SDS011;8199;51.310;9.466;2023-08-07T09:05:14;3.88;;;2.60;;
14137;SDS011;8199;51.310;9.466;2023-08-07T09:07:41;4.40;;;2.63;;
14137;SDS011;8199;51.310;9.466;2023-08-07T09:10:08;4.68;;;2.75;;
14137;SDS011;8199;51.310;9.466;2023-08-07T09:12:36;4.32;;;2.15;;
14137;SDS011;8199;51.310;9.466;2023-08-07T09:15:05;4.30;;;2.75;;
14137;SDS011;8199;51.310;9.466;2023-08-07T09:17:35;4.38;;;2.60;;
14137;SDS011;8199;51.310;9.466;2023-08-07T09:20:05;3.40;;;2.70;;
14137;SDS011;8199;51.310;9.466;2023-08-07T09:22:35;4.22;;;3.03;;
14137;SDS011;8199;51.310;9.466;2023-08-07T09:25:01;4.20;;;2.80;;
14137;SDS011;8199;51.310;9.466;2023-08-07T09:27:27;3.55;;;2.65;;
14137;SDS011;8199;51.310;9.466;2023-08-07T09:29:54;3.90;;;2.63;;
14137;SDS011;8199;51.310;9.466;2023-08-07T09:32:20;4.72;;;2.90;;
14137;SDS011;8199;51.310;9.466;2023-08-07T09:34:49;3.85;;;2.75;;
14137;SDS011;8199;51.310;9.466;2023-08-07T09:37:16;4.70;;;2.75;;
14137;SDS011;8199;51.310;9.466;2023-08-07T09:39:42;3.22;;;2.47;;
14137;SDS011;8199;51.310;9.466;2023-08-07T09:42:14;4.13;;;2.63;;
14137;SDS011;8199;51.310;9.466;2023-08-07T09:44:40;3.03;;;2.65;;
14137;SDS011;8199;51.310;9.466;2023-08-07T09:47:16;3.42;;;2.40;;
14137;SDS011;8199;51.310;9.466;2023-08-07T09:49:43;4.50;;;2.50;;
14137;SDS011;8199;51.310;9.466;2023-08-07T09:52:10;3.83;;;2.80;;
14137;SDS011;8199;51.310;9.466;2023-08-07T09:54:38;3.72;;;3.00;;
14137;SDS011;8199;51.310;9.466;2023-08-07T09:57:04;4.13;;;2.80;;
14137;SDS011;8199;51.310;9.466;2023-08-07T09:59:31;4.82;;;3.22;;
14137;SDS011;8199;51.310;9.466;2023-08-07T10:02:00;3.63;;;2.70;;
14137;SDS011;8199;51.310;9.466;2023-08-07T10:04:27;4.07;;;2.70;;
14137;SDS011;8199;51.310;9.466;2023-08-07T10:06:54;4.65;;;3.03;;
14137;SDS011;8199;51.310;9.466;2023-08-07T10:09:21;3.22;;;2.67;;
14137;SDS011;8199;51.310;9.466;2023-08-07T10:11:46;3.92;;;2.72;;
14137;SDS011;8199;51.310;9.466;2023-08-07T10:14:14;3.42;;;2.60;;
14137;SDS011;8199;51.310;9.466;2023-08-07T10:16:40;3.72;;;2.80;;
14137;SDS011;8199;51.310;9.466;2023-08-07T10:19:07;3.40;;;2.55;;
14137;SDS011;8199;51.310;9.466;2023-08-07T10:21:37;3.75;;;2.78;;
14137;SDS011;8199;51.310;9.466;2023-08-07T10:24:04;3.45;;;2.85;;
14137;SDS011;8199;51.310;9.466;2023-08-07T10:26:32;3.42;;;2.75;;
14137;SDS011;8199;51.310;9.466;2023-08-07T10:28:59;3.95;;;3.17;;
14137;SDS011;8199;51.310;9.466;2023-08-07T10:31:27;4.15;;;2.72;;
14137;SDS011;8199;51.310;9.466;2023-08-07T10:33:55;3.47;;;2.50;;
14137;SDS011;8199;51.310;9.466;2023-08-07T10:36:20;3.40;;;2.70;;
14137;SDS011;8199;51.310;9.466;2023-08-07T10:38:49;3.38;;;2.88;;
14137;SDS011;8199;51.310;9.466;2023-08-07T10:41:16;3.60;;;2.90;;
14137;SDS011;8199;51.310;9.466;2023-08-07T10:43:44;2.95;;;2.58;;
14137;SDS011;8199;51.310;9.466;2023-08-07T10:51:04;4.03;;;2.92;;
14137;SDS011;8199;51.310;9.466;2023-08-07T10:53:37;3.45;;;2.80;;
14137;SDS011;8199;51.310;9.466;2023-08-07T10:56:08;3.40;;;2.65;;
14137;SDS011;8199;51.310;9.466;2023-08-07T10:58:38;3.70;;;2.97;;
14137;SDS011;8199;51.310;9.466;2023-08-07T11:01:15;2.97;;;2.65;;
14137;SDS011;8199;51.310;9.466;2023-08-07T11:04:00;3.88;;;2.80;;
14137;SDS011;8199;51.310;9.466;2023-08-07T11:06:31;3.25;;;2.58;;
14137;SDS011;8199;51.310;9.466;2023-08-07T11:08:58;3.13;;;2.60;;
14137;SDS011;8199;51.310;9.466;2023-08-07T11:11:24;3.05;;;2.75;;
14137;SDS011;8199;51.310;9.466;2023-08-07T11:13:52;4.05;;;3.08;;
14137;SDS011;8199;51.310;9.466;2023-08-07T11:16:17;3.03;;;2.50;;
14137;SDS011;8199;51.310;9.466;2023-08-07T11:18:46;3.63;;;2.78;;
14137;SDS011;8199;51.310;9.466;2023-08-07T11:21:12;3.53;;;2.63;;
14137;SDS011;8199;51.310;9.466;2023-08-07T11:23:38;4.85;;;2.70;;
14137;SDS011;8199;51.310;9.466;2023-08-07T11:26:04;4.47;;;3.10;;
14137;SDS011;8199;51.310;9.466;2023-08-07T11:28:30;3.45;;;2.70;;
14137;SDS011;8199;51.310;9.466;2023-08-07T11:30:56;3.08;;;2.67;;
14137;SDS011;8199;51.310;9.466;2023-08-07T11:33:25;3.20;;;2.90;;
14137;SDS011;8199;51.310;9.466;2023-08-07T11:35:52;3.10;;;2.75;;
14137;SDS011;8199;51.310;9.466;2023-08-07T11:38:34;3.60;;;2.92;;
14137;SDS011;8199;51.310;9.466;2023-08-07T11:41:02;3.72;;;2.42;;
14137;SDS011;8199;51.310;9.466;2023-08-07T11:43:30;3.63;;;2.90;;
14137;SDS011;8199;51.310;9.466;2023-08-07T11:45:57;3.75;;;2.90;;
14137;SDS011;8199;51.310;9.466;2023-08-07T11:48:28;3.13;;;2.50;;
14137;SDS011;8199;51.310;9.466;2023-08-07T11:50:55;4.65;;;3.30;;
14137;SDS011;8199;51.310;9.466;2023-08-07T11:53:22;3.33;;;2.85;;
14137;SDS011;8199;51.310;9.466;2023-08-07T11:55:53;4.53;;;2.78;;
14137;SDS011;8199;51.310;9.466;2023-08-07T11:58:24;3.40;;;3.10;;
14137;SDS011;8199;51.310;9.466;2023-08-07T12:00:50;3.47;;;2.85;;
14137;SDS011;8199;51.310;9.466;2023-08-07T12:03:26;3.88;;;3.10;;
14137;SDS011;8199;51.310;9.466;2023-08-07T12:05:55;3.97;;;2.95;;
14137;SDS011;8199;51.310;9.466;2023-08-07T12:08:21;3.30;;;2.97;;
14137;SDS011;8199;51.310;9.466;2023-08-07T12:10:53;4.35;;;3.08;;
14137;SDS011;8199;51.310;9.466;2023-08-07T12:13:20;3.03;;;2.58;;
14137;SDS011;8199;51.310;9.466;2023-08-07T12:15:50;3.70;;;2.90;;
14137;SDS011;8199;51.310;9.466;2023-08-07T12:18:18;4.43;;;3.40;;
14137;SDS011;8199;51.310;9.466;2023-08-07T12:20:45;4.47;;;3.45;;
14137;SDS011;8199;51.310;9.466;2023-08-07T12:23:14;3.92;;;3.17;;
14137;SDS011;8199;51.310;9.466;2023-08-07T12:25:43;4.03;;;3.30;;
14137;SDS011;8199;51.310;9.466;2023-08-07T12:28:09;4.03;;;3.05;;
14137;SDS011;8199;51.310;9.466;2023-08-07T12:30:36;3.85;;;3.00;;
14137;SDS011;8199;51.310;9.466;2023-08-07T12:33:02;4.57;;;3.13;;
14137;SDS011;8199;51.310;9.466;2023-08-07T12:35:29;4.32;;;3.78;;
14137;SDS011;8199;51.310;9.466;2023-08-07T12:37:55;4.30;;;3.20;;
14137;SDS011;8199;51.310;9.466;2023-08-07T12:40:21;4.47;;;3.80;;
14137;SDS011;8199;51.310;9.466;2023-08-07T12:42:48;5.22;;;3.75;;
14137;SDS011;8199;51.310;9.466;2023-08-07T12:45:14;5.22;;;4.45;;
14137;SDS011;8199;51.310;9.466;2023-08-07T12:47:41;5.25;;;4.28;;
14137;SDS011;8199;51.310;9.466;2023-08-07T12:50:07;4.60;;;3.88;;
14137;SDS011;8199;51.310;9.466;2023-08-07T12:52:33;5.63;;;4.80;;
14137;SDS011;8199;51.310;9.466;2023-08-07T12:54:59;7.75;;;5.93;;
14137;SDS011;8199;51.310;9.466;2023-08-07T12:57:24;7.82;;;6.43;;
14137;SDS011;8199;51.310;9.466;2023-08-07T12:59:50;10.43;;;7.93;;
14137;SDS011;8199;51.310;9.466;2023-08-07T13:02:16;10.55;;;8.48;;
14137;SDS011;8199;51.310;9.466;2023-08-07T13:04:41;11.52;;;9.02;;
14137;SDS011;8199;51.310;9.466;2023-08-07T13:07:07;12.75;;;9.48;;
14137;SDS011;8199;51.310;9.466;2023-08-07T13:09:32;13.00;;;11.15;;
14137;SDS011;8199;51.310;9.466;2023-08-07T13:11:58;14.75;;;11.55;;
14137;SDS011;8199;51.310;9.466;2023-08-07T13:14:24;11.90;;;9.50;;
14137;SDS011;8199;51.310;9.466;2023-08-07T13:16:49;10.63;;;8.95;;
14137;SDS011;8199;51.310;9.466;2023-08-07T13:19:16;9.40;;;7.75;;
14137;SDS011;8199;51.310;9.466;2023-08-07T13:21:41;9.38;;;7.68;;
14137;SDS011;8199;51.310;9.466;2023-08-07T13:24:07;8.20;;;7.10;;
14137;SDS011;8199;51.310;9.466;2023-08-07T13:26:32;10.32;;;8.25;;
14137;SDS011;8199;51.310;9.466;2023-08-07T13:28:58;11.65;;;9.35;;
14137;SDS011;8199;51.310;9.466;2023-08-07T13:31:23;11.98;;;9.60;;
14137;SDS011;8199;51.310;9.466;2023-08-07T13:33:49;9.88;;;8.27;;
14137;SDS011;8199;51.310;9.466;2023-08-07T13:36:14;10.20;;;8.55;;
14137;SDS011;8199;51.310;9.466;2023-08-07T13:38:40;10.88;;;8.43;;
14137;SDS011;8199;51.310;9.466;2023-08-07T13:41:05;11.57;;;9.35;;
14137;SDS011;8199;51.310;9.466;2023-08-07T13:43:31;10.70;;;7.97;;
14137;SDS011;8199;51.310;9.466;2023-08-07T13:45:57;13.18;;;8.60;;
14137;SDS011;8199;51.310;9.466;2023-08-07T13:48:23;12.55;;;9.63;;
14137;SDS011;8199;51.310;9.466;2023-08-07T13:50:51;13.75;;;10.57;;
14137;SDS011;8199;51.310;9.466;2023-08-07T13:53:17;12.55;;;9.77;;
14137;SDS011;8199;51.310;9.466;2023-08-07T13:55:44;14.90;;;9.88;;
14137;SDS011;8199;51.310;9.466;2023-08-07T13:58:11;11.73;;;9.27;;
14137;SDS011;8199;51.310;9.466;2023-08-07T14:00:37;12.93;;;9.98;;
14137;SDS011;8199;51.310;9.466;2023-08-07T14:03:03;12.80;;;9.93;;
14137;SDS011;8199;51.310;9.466;2023-08-07T14:05:29;12.88;;;10.65;;
14137;SDS011;8199;51.310;9.466;2023-08-07T14:07:54;13.30;;;10.65;;
14137;SDS011;8199;51.310;9.466;2023-08-07T14:10:22;12.52;;;10.80;;
14137;SDS011;8199;51.310;9.466;2023-08-07T14:12:48;11.75;;;9.48;;
14137;SDS011;8199;51.310;9.466;2023-08-07T14:15:13;12.18;;;10.07;;
14137;SDS011;8199;51.310;9.466;2023-08-07T14:17:39;13.10;;;11.00;;
14137;SDS011;8199;51.310;9.466;2023-08-07T14:20:04;15.75;;;11.32;;
14137;SDS011;8199;51.310;9.466;2023-08-07T14:22:31;13.43;;;10.77;;
14137;SDS011;8199;51.310;9.466;2023-08-07T14:24:57;11.73;;;8.88;;
14137;SDS011;8199;51.310;9.466;2023-08-07T14:27:22;11.77;;;10.13;;
14137;SDS011;8199;51.310;9.466;2023-08-07T14:29:48;13.70;;;9.77;;
14137;SDS011;8199;51.310;9.466;2023-08-07T14:32:13;13.40;;;10.25;;
14137;SDS011;8199;51.310;9.466;2023-08-07T14:34:39;13.27;;;9.50;;
14137;SDS011;8199;51.310;9.466;2023-08-07T14:37:04;13.23;;;10.60;;
14137;SDS011;8199;51.310;9.466;2023-08-07T14:39:30;11.82;;;9.63;;
14137;SDS011;8199;51.310;9.466;2023-08-07T14:41:56;13.20;;;9.85;;
14137;SDS011;8199;51.310;9.466;2023-08-07T14:44:21;11.25;;;9.63;;
14137;SDS011;8199;51.310;9.466;2023-08-07T14:46:47;14.48;;;9.63;;
14137;SDS011;8199;51.310;9.466;2023-08-07T14:49:13;13.40;;;9.23;;
14137;SDS011;8199;51.310;9.466;2023-08-07T14:51:39;14.70;;;9.98;;
14137;SDS011;8199;51.310;9.466;2023-08-07T14:54:04;14.05;;;9.90;;
14137;SDS011;8199;51.310;9.466;2023-08-07T14:56:30;13.75;;;9.45;;
14137;SDS011;8199;51.310;9.466;2023-08-07T14:58:55;12.48;;;8.80;;
14137;SDS011;8199;51.310;9.466;2023-08-07T15:01:21;11.38;;;8.48;;
14137;SDS011;8199;51.310;9.466;2023-08-07T15:03:47;12.73;;;9.40;;